sensor_id;sensor_type;location;lat;lon;timestamp;P1;durP1;ratioP1;P2;durP2;ratioP2
69856;SDS011;57147;53.582;10.112;2023-09-07T00:04:58;5.75;;;4.80;;
69856;SDS011;57147;53.582;10.112;2023-09-07T00:10:01;5.18;;;4.78;;
69856;SDS011;57147;53.582;10.112;2023-09-07T00:15:03;3.65;;;2.95;;
69856;SDS011;57147;53.582;10.112;2023-09-07T00:20:04;5.75;;;5.25;;
69856;SDS011;57147;53.582;10.112;2023-09-07T00:25:08;5.07;;;4.68;;
69856;SDS011;57147;53.582;10.112;2023-09-07T00:30:09;5.10;;;4.60;;
69856;SDS011;57147;53.582;10.112;2023-09-07T00:35:10;6.82;;;3.67;;
69856;SDS011;57147;53.582;10.112;2023-09-07T00:40:13;5.72;;;4.53;;
69856;SDS011;57147;53.582;10.112;2023-09-07T00:45:14;5.28;;;4.72;;
69856;SDS011;57147;53.582;10.112;2023-09-07T00:50:15;5.18;;;4.68;;
69856;SDS011;57147;53.582;10.112;2023-09-07T00:55:18;4.15;;;3.75;;
69856;SDS011;57147;53.582;10.112;2023-09-07T01:00:19;5.38;;;4.13;;
69856;SDS011;57147;53.582;10.112;2023-09-07T01:05:20;4.75;;;4.13;;
69856;SDS011;57147;53.582;10.112;2023-09-07T01:10:27;5.15;;;4.65;;
69856;SDS011;57147;53.582;10.112;2023-09-07T01:15:28;5.80;;;5.15;;
69856;SDS011;57147;53.582;10.112;2023-09-07T01:20:28;5.75;;;4.78;;
69856;SDS011;57147;53.582;10.112;2023-09-07T01:25:34;5.80;;;5.20;;
69856;SDS011;57147;53.582;10.112;2023-09-07T01:30:35;5.05;;;4.55;;
69856;SDS011;57147;53.582;10.112;2023-09-07T01:35:36;6.45;;;4.85;;
69856;SDS011;57147;53.582;10.112;2023-09-07T01:40:40;4.90;;;4.32;;
69856;SDS011;57147;53.582;10.112;2023-09-07T01:45:41;4.43;;;4.03;;
69856;SDS011;57147;53.582;10.112;2023-09-07T01:50:42;6.45;;;5.95;;
69856;SDS011;57147;53.582;10.112;2023-09-07T01:55:45;4.65;;;4.25;;
69856;SDS011;57147;53.582;10.112;2023-09-07T02:00:45;5.38;;;4.93;;
69856;SDS011;57147;53.582;10.112;2023-09-07T02:05:46;5.82;;;3.70;;
69856;SDS011;57147;53.582;10.112;2023-09-07T02:10:49;4.72;;;4.32;;
69856;SDS011;57147;53.582;10.112;2023-09-07T02:15:50;4.60;;;4.20;;
69856;SDS011;57147;53.582;10.112;2023-09-07T02:20:50;5.05;;;4.60;;
69856;SDS011;57147;53.582;10.112;2023-09-07T02:25:54;4.00;;;2.83;;
69856;SDS011;57147;53.582;10.112;2023-09-07T02:30:54;6.15;;;4.55;;
69856;SDS011;57147;53.582;10.112;2023-09-07T02:35:55;6.10;;;5.55;;
69856;SDS011;57147;53.582;10.112;2023-09-07T02:40:58;5.13;;;4.63;;
69856;SDS011;57147;53.582;10.112;2023-09-07T02:45:59;5.60;;;5.10;;
69856;SDS011;57147;53.582;10.112;2023-09-07T02:56:12;5.32;;;4.68;;
69856;SDS011;57147;53.582;10.112;2023-09-07T03:01:12;4.68;;;4.28;;
69856;SDS011;57147;53.582;10.112;2023-09-07T03:06:14;7.07;;;4.75;;
69856;SDS011;57147;53.582;10.112;2023-09-07T03:11:20;6.18;;;5.55;;
69856;SDS011;57147;53.582;10.112;2023-09-07T03:16:21;6.38;;;5.40;;
69856;SDS011;57147;53.582;10.112;2023-09-07T03:21:22;5.50;;;4.85;;
69856;SDS011;57147;53.582;10.112;2023-09-07T03:26:25;5.72;;;5.22;;
69856;SDS011;57147;53.582;10.112;2023-09-07T03:31:26;7.35;;;5.32;;
69856;SDS011;57147;53.582;10.112;2023-09-07T03:36:26;6.70;;;4.90;;
69856;SDS011;57147;53.582;10.112;2023-09-07T03:41:30;6.53;;;6.00;;
69856;SDS011;57147;53.582;10.112;2023-09-07T03:46:30;5.97;;;5.47;;
69856;SDS011;57147;53.582;10.112;2023-09-07T03:51:31;5.72;;;3.63;;
69856;SDS011;57147;53.582;10.112;2023-09-07T03:56:34;6.78;;;5.03;;
69856;SDS011;57147;53.582;10.112;2023-09-07T04:01:35;5.60;;;5.07;;
69856;SDS011;57147;53.582;10.112;2023-09-07T04:06:36;5.88;;;5.38;;
69856;SDS011;57147;53.582;10.112;2023-09-07T04:11:39;6.15;;;5.63;;
69856;SDS011;57147;53.582;10.112;2023-09-07T04:16:40;7.22;;;6.15;;
69856;SDS011;57147;53.582;10.112;2023-09-07T04:21:41;6.18;;;5.63;;
69856;SDS011;57147;53.582;10.112;2023-09-07T04:26:44;5.65;;;5.05;;
69856;SDS011;57147;53.582;10.112;2023-09-07T04:31:44;6.82;;;6.22;;
69856;SDS011;57147;53.582;10.112;2023-09-07T04:36:45;5.90;;;5.28;;
69856;SDS011;57147;53.582;10.112;2023-09-07T04:41:48;7.18;;;5.70;;
69856;SDS011;57147;53.582;10.112;2023-09-07T04:46:49;6.97;;;5.47;;
69856;SDS011;57147;53.582;10.112;2023-09-07T04:51:49;6.57;;;5.63;;
69856;SDS011;57147;53.582;10.112;2023-09-07T04:56:55;6.60;;;5.88;;
69856;SDS011;57147;53.582;10.112;2023-09-07T05:01:58;9.15;;;5.97;;
69856;SDS011;57147;53.582;10.112;2023-09-07T05:06:59;6.97;;;6.28;;
69856;SDS011;57147;53.582;10.112;2023-09-07T05:12:03;7.03;;;6.32;;
69856;SDS011;57147;53.582;10.112;2023-09-07T05:17:04;9.75;;;7.32;;
69856;SDS011;57147;53.582;10.112;2023-09-07T05:22:04;5.82;;;5.25;;
69856;SDS011;57147;53.582;10.112;2023-09-07T05:27:07;8.63;;;7.40;;
69856;SDS011;57147;53.582;10.112;2023-09-07T05:32:09;8.38;;;6.57;;
69856;SDS011;57147;53.582;10.112;2023-09-07T05:37:10;13.15;;;7.03;;
69856;SDS011;57147;53.582;10.112;2023-09-07T05:42:13;10.18;;;5.47;;
69856;SDS011;57147;53.582;10.112;2023-09-07T05:47:14;8.95;;;7.50;;
69856;SDS011;57147;53.582;10.112;2023-09-07T05:52:15;9.00;;;7.18;;
69856;SDS011;57147;53.582;10.112;2023-09-07T05:57:18;14.48;;;11.63;;
69856;SDS011;57147;53.582;10.112;2023-09-07T06:02:18;14.90;;;11.20;;
69856;SDS011;57147;53.582;10.112;2023-09-07T06:07:19;11.77;;;7.97;;
69856;SDS011;57147;53.582;10.112;2023-09-07T06:12:22;8.18;;;6.90;;
69856;SDS011;57147;53.582;10.112;2023-09-07T06:17:23;9.15;;;8.23;;
69856;SDS011;57147;53.582;10.112;2023-09-07T06:22:23;10.05;;;7.05;;
69856;SDS011;57147;53.582;10.112;2023-09-07T06:27:27;7.78;;;5.65;;
69856;SDS011;57147;53.582;10.112;2023-09-07T06:32:27;6.75;;;5.60;;
69856;SDS011;57147;53.582;10.112;2023-09-07T06:37:28;7.47;;;5.75;;
69856;SDS011;57147;53.582;10.112;2023-09-07T06:42:31;7.70;;;6.53;;
69856;SDS011;57147;53.582;10.112;2023-09-07T06:47:32;6.63;;;5.43;;
69856;SDS011;57147;53.582;10.112;2023-09-07T06:52:37;7.90;;;6.10;;
69856;SDS011;57147;53.582;10.112;2023-09-07T06:57:40;9.52;;;8.32;;
69856;SDS011;57147;53.582;10.112;2023-09-07T07:02:42;8.93;;;7.35;;
69856;SDS011;57147;53.582;10.112;2023-09-07T07:07:45;6.68;;;5.97;;
69856;SDS011;57147;53.582;10.112;2023-09-07T07:13:00;7.20;;;6.45;;
69856;SDS011;57147;53.582;10.112;2023-09-07T07:18:07;3.85;;;3.40;;
69856;SDS011;57147;53.582;10.112;2023-09-07T07:23:08;6.57;;;5.07;;
69856;SDS011;57147;53.582;10.112;2023-09-07T07:28:11;5.80;;;4.75;;
69856;SDS011;57147;53.582;10.112;2023-09-07T07:33:35;5.00;;;4.50;;
69856;SDS011;57147;53.582;10.112;2023-09-07T07:38:41;9.30;;;8.30;;
69856;SDS011;57147;53.582;10.112;2023-09-07T07:43:45;9.40;;;6.55;;
69856;SDS011;57147;53.582;10.112;2023-09-07T07:48:45;4.90;;;4.50;;
69856;SDS011;57147;53.582;10.112;2023-09-07T07:53:46;6.80;;;6.28;;
69856;SDS011;57147;53.582;10.112;2023-09-07T07:58:49;5.15;;;4.65;;
69856;SDS011;57147;53.582;10.112;2023-09-07T08:03:50;5.13;;;4.65;;
69856;SDS011;57147;53.582;10.112;2023-09-07T08:08:51;5.18;;;4.68;;
69856;SDS011;57147;53.582;10.112;2023-09-07T08:13:57;6.13;;;4.72;;
69856;SDS011;57147;53.582;10.112;2023-09-07T08:19:00;5.57;;;4.22;;
69856;SDS011;57147;53.582;10.112;2023-09-07T08:40:34;5.07;;;4.40;;
69856;SDS011;57147;53.582;10.112;2023-09-07T08:45:37;5.82;;;4.63;;
69856;SDS011;57147;53.582;10.112;2023-09-07T08:50:43;4.97;;;4.47;;
69856;SDS011;57147;53.582;10.112;2023-09-07T08:55:45;5.55;;;5.15;;
69856;SDS011;57147;53.582;10.112;2023-09-07T09:00:46;4.50;;;4.10;;
69856;SDS011;57147;53.582;10.112;2023-09-07T09:05:50;5.38;;;4.82;;
69856;SDS011;57147;53.582;10.112;2023-09-07T09:10:58;6.72;;;5.70;;
69856;SDS011;57147;53.582;10.112;2023-09-07T09:15:59;6.00;;;4.28;;
69856;SDS011;57147;53.582;10.112;2023-09-07T09:21:03;6.00;;;4.45;;
69856;SDS011;57147;53.582;10.112;2023-09-07T09:26:04;5.18;;;3.72;;
69856;SDS011;57147;53.582;10.112;2023-09-07T09:31:06;5.35;;;4.85;;
69856;SDS011;57147;53.582;10.112;2023-09-07T09:36:09;6.10;;;4.65;;
69856;SDS011;57147;53.582;10.112;2023-09-07T09:41:10;5.35;;;3.97;;
69856;SDS011;57147;53.582;10.112;2023-09-07T09:46:12;6.13;;;4.72;;
69856;SDS011;57147;53.582;10.112;2023-09-07T09:51:15;4.18;;;3.78;;
69856;SDS011;57147;53.582;10.112;2023-09-07T09:56:18;6.70;;;4.38;;
69856;SDS011;57147;53.582;10.112;2023-09-07T10:01:18;4.72;;;4.22;;
69856;SDS011;57147;53.582;10.112;2023-09-07T10:06:23;4.82;;;2.72;;
69856;SDS011;57147;53.582;10.112;2023-09-07T10:11:29;5.00;;;4.60;;
69856;SDS011;57147;53.582;10.112;2023-09-07T10:16:41;4.43;;;3.70;;
69856;SDS011;57147;53.582;10.112;2023-09-07T10:21:45;4.05;;;3.65;;
69856;SDS011;57147;53.582;10.112;2023-09-07T10:31:55;4.15;;;3.75;;
69856;SDS011;57147;53.582;10.112;2023-09-07T10:37:07;4.03;;;3.40;;
69856;SDS011;57147;53.582;10.112;2023-09-07T10:42:19;5.97;;;3.40;;
69856;SDS011;57147;53.582;10.112;2023-09-07T10:47:26;4.45;;;3.92;;
69856;SDS011;57147;53.582;10.112;2023-09-07T10:52:30;4.43;;;4.03;;
69856;SDS011;57147;53.582;10.112;2023-09-07T10:57:40;4.00;;;3.60;;
69856;SDS011;57147;53.582;10.112;2023-09-07T11:02:43;3.85;;;3.47;;
69856;SDS011;57147;53.582;10.112;2023-09-07T11:07:55;3.45;;;3.15;;
69856;SDS011;57147;53.582;10.112;2023-09-07T11:12:56;3.90;;;3.50;;
69856;SDS011;57147;53.582;10.112;2023-09-07T11:17:56;3.97;;;3.17;;
69856;SDS011;57147;53.582;10.112;2023-09-07T11:23:00;4.55;;;3.38;;
69856;SDS011;57147;53.582;10.112;2023-09-07T11:28:08;3.72;;;3.40;;
69856;SDS011;57147;53.582;10.112;2023-09-07T11:33:21;5.25;;;4.05;;
69856;SDS011;57147;53.582;10.112;2023-09-07T11:38:28;4.75;;;3.03;;
69856;SDS011;57147;53.582;10.112;2023-09-07T11:43:30;3.55;;;3.25;;
69856;SDS011;57147;53.582;10.112;2023-09-07T11:48:30;3.97;;;3.60;;
69856;SDS011;57147;53.582;10.112;2023-09-07T11:53:34;3.03;;;2.72;;
69856;SDS011;57147;53.582;10.112;2023-09-07T11:58:37;3.28;;;2.97;;
69856;SDS011;57147;53.582;10.112;2023-09-07T12:03:37;3.55;;;2.80;;
69856;SDS011;57147;53.582;10.112;2023-09-07T12:08:57;3.65;;;3.30;;
69856;SDS011;57147;53.582;10.112;2023-09-07T12:13:58;6.10;;;3.83;;
69856;SDS011;57147;53.582;10.112;2023-09-07T12:18:59;4.10;;;3.70;;
69856;SDS011;57147;53.582;10.112;2023-09-07T12:24:04;4.03;;;3.63;;
69856;SDS011;57147;53.582;10.112;2023-09-07T12:29:14;4.05;;;3.58;;
69856;SDS011;57147;53.582;10.112;2023-09-07T12:34:15;4.07;;;3.22;;
69856;SDS011;57147;53.582;10.112;2023-09-07T12:39:18;3.88;;;3.47;;
69856;SDS011;57147;53.582;10.112;2023-09-07T12:44:19;4.07;;;2.60;;
69856;SDS011;57147;53.582;10.112;2023-09-07T12:49:22;6.28;;;4.10;;
69856;SDS011;57147;53.582;10.112;2023-09-07T12:54:26;3.22;;;2.55;;
69856;SDS011;57147;53.582;10.112;2023-09-07T13:04:32;3.17;;;2.88;;
69856;SDS011;57147;53.582;10.112;2023-09-07T13:09:36;4.03;;;3.30;;
69856;SDS011;57147;53.582;10.112;2023-09-07T13:14:55;4.05;;;2.70;;
69856;SDS011;57147;53.582;10.112;2023-09-07T13:19:57;4.03;;;2.97;;
69856;SDS011;57147;53.582;10.112;2023-09-07T13:25:00;3.72;;;2.92;;
69856;SDS011;57147;53.582;10.112;2023-09-07T13:30:04;4.22;;;3.80;;
69856;SDS011;57147;53.582;10.112;2023-09-07T13:35:07;3.78;;;3.47;;
69856;SDS011;57147;53.582;10.112;2023-09-07T13:40:11;4.03;;;2.83;;
69856;SDS011;57147;53.582;10.112;2023-09-07T13:45:15;3.85;;;2.83;;
69856;SDS011;57147;53.582;10.112;2023-09-07T13:50:16;5.78;;;3.45;;
69856;SDS011;57147;53.582;10.112;2023-09-07T13:55:19;4.72;;;3.45;;
69856;SDS011;57147;53.582;10.112;2023-09-07T14:00:20;3.65;;;2.63;;
69856;SDS011;57147;53.582;10.112;2023-09-07T14:05:21;5.57;;;2.65;;
69856;SDS011;57147;53.582;10.112;2023-09-07T14:10:27;3.78;;;3.17;;
69856;SDS011;57147;53.582;10.112;2023-09-07T14:20:31;5.07;;;4.33;;
69856;SDS011;57147;53.582;10.112;2023-09-07T14:25:34;3.70;;;3.40;;
69856;SDS011;57147;53.582;10.112;2023-09-07T14:30:35;7.15;;;2.75;;
69856;SDS011;57147;53.582;10.112;2023-09-07T14:35:37;3.72;;;3.22;;
69856;SDS011;57147;53.582;10.112;2023-09-07T14:40:40;9.52;;;6.13;;
69856;SDS011;57147;53.582;10.112;2023-09-07T14:45:42;5.88;;;3.70;;
69856;SDS011;57147;53.582;10.112;2023-09-07T14:50:43;7.47;;;4.15;;
69856;SDS011;57147;53.582;10.112;2023-09-07T14:55:48;5.07;;;3.58;;
69856;SDS011;57147;53.582;10.112;2023-09-07T15:00:50;3.75;;;3.35;;
69856;SDS011;57147;53.582;10.112;2023-09-07T15:06:00;3.75;;;2.80;;
69856;SDS011;57147;53.582;10.112;2023-09-07T15:11:03;6.15;;;3.08;;
69856;SDS011;57147;53.582;10.112;2023-09-07T15:16:06;6.20;;;3.40;;
69856;SDS011;57147;53.582;10.112;2023-09-07T15:21:10;3.53;;;1.80;;
69856;SDS011;57147;53.582;10.112;2023-09-07T15:26:18;4.80;;;3.05;;
69856;SDS011;57147;53.582;10.112;2023-09-07T15:36:47;4.63;;;3.08;;
69856;SDS011;57147;53.582;10.112;2023-09-07T15:41:57;7.28;;;4.22;;
69856;SDS011;57147;53.582;10.112;2023-09-07T15:47:01;11.70;;;6.15;;
69856;SDS011;57147;53.582;10.112;2023-09-07T15:52:02;12.23;;;6.00;;
69856;SDS011;57147;53.582;10.112;2023-09-07T15:57:08;8.98;;;5.03;;
69856;SDS011;57147;53.582;10.112;2023-09-07T16:02:09;4.43;;;3.20;;
69856;SDS011;57147;53.582;10.112;2023-09-07T16:07:13;8.57;;;5.32;;
69856;SDS011;57147;53.582;10.112;2023-09-07T16:12:19;4.72;;;3.38;;
69856;SDS011;57147;53.582;10.112;2023-09-07T16:17:21;6.00;;;4.55;;
69856;SDS011;57147;53.582;10.112;2023-09-07T16:22:30;8.68;;;7.18;;
69856;SDS011;57147;53.582;10.112;2023-09-07T16:27:33;7.68;;;5.40;;
69856;SDS011;57147;53.582;10.112;2023-09-07T16:32:34;12.02;;;10.52;;
69856;SDS011;57147;53.582;10.112;2023-09-07T16:37:35;6.20;;;4.90;;
69856;SDS011;57147;53.582;10.112;2023-09-07T16:42:38;5.40;;;4.03;;
69856;SDS011;57147;53.582;10.112;2023-09-07T16:47:39;5.68;;;3.60;;
69856;SDS011;57147;53.582;10.112;2023-09-07T16:52:41;6.57;;;3.90;;
69856;SDS011;57147;53.582;10.112;2023-09-07T16:57:44;4.68;;;3.53;;
69856;SDS011;57147;53.582;10.112;2023-09-07T17:07:49;4.53;;;3.28;;
69856;SDS011;57147;53.582;10.112;2023-09-07T17:12:52;4.35;;;3.53;;
69856;SDS011;57147;53.582;10.112;2023-09-07T17:17:54;8.93;;;7.13;;
69856;SDS011;57147;53.582;10.112;2023-09-07T17:22:57;6.25;;;4.97;;
69856;SDS011;57147;53.582;10.112;2023-09-07T17:28:01;9.32;;;8.43;;
69856;SDS011;57147;53.582;10.112;2023-09-07T17:33:03;9.43;;;6.57;;
69856;SDS011;57147;53.582;10.112;2023-09-07T17:38:10;7.72;;;6.03;;
69856;SDS011;57147;53.582;10.112;2023-09-07T17:43:30;6.60;;;4.85;;
69856;SDS011;57147;53.582;10.112;2023-09-07T17:54:06;13.15;;;10.38;;
69856;SDS011;57147;53.582;10.112;2023-09-07T17:59:19;27.42;;;23.58;;
69856;SDS011;57147;53.582;10.112;2023-09-07T18:04:20;18.38;;;16.48;;
69856;SDS011;57147;53.582;10.112;2023-09-07T18:09:33;21.55;;;15.73;;
69856;SDS011;57147;53.582;10.112;2023-09-07T18:14:37;14.93;;;9.95;;
69856;SDS011;57147;53.582;10.112;2023-09-07T18:19:38;15.68;;;13.07;;
69856;SDS011;57147;53.582;10.112;2023-09-07T18:24:41;17.92;;;14.95;;
69856;SDS011;57147;53.582;10.112;2023-09-07T18:29:51;7.55;;;5.78;;
69856;SDS011;57147;53.582;10.112;2023-09-07T18:35:07;9.75;;;6.05;;
69856;SDS011;57147;53.582;10.112;2023-09-07T18:45:35;9.10;;;6.88;;
69856;SDS011;57147;53.582;10.112;2023-09-07T18:51:09;27.63;;;20.05;;
69856;SDS011;57147;53.582;10.112;2023-09-07T18:56:14;22.52;;;17.30;;
69856;SDS011;57147;53.582;10.112;2023-09-07T19:01:19;10.48;;;7.95;;
69856;SDS011;57147;53.582;10.112;2023-09-07T19:06:21;11.48;;;8.18;;
69856;SDS011;57147;53.582;10.112;2023-09-07T19:11:21;12.55;;;9.52;;
69856;SDS011;57147;53.582;10.112;2023-09-07T19:16:25;11.52;;;9.27;;
69856;SDS011;57147;53.582;10.112;2023-09-07T19:21:26;10.57;;;7.53;;
69856;SDS011;57147;53.582;10.112;2023-09-07T19:26:31;8.75;;;7.68;;
69856;SDS011;57147;53.582;10.112;2023-09-07T19:31:35;10.85;;;7.47;;
69856;SDS011;57147;53.582;10.112;2023-09-07T19:36:36;8.38;;;6.72;;
69856;SDS011;57147;53.582;10.112;2023-09-07T19:41:37;8.52;;;6.85;;
69856;SDS011;57147;53.582;10.112;2023-09-07T19:46:41;12.32;;;7.10;;
69856;SDS011;57147;53.582;10.112;2023-09-07T19:51:42;10.88;;;7.65;;
69856;SDS011;57147;53.582;10.112;2023-09-07T19:56:42;8.13;;;6.30;;
69856;SDS011;57147;53.582;10.112;2023-09-07T20:01:55;8.18;;;6.28;;
69856;SDS011;57147;53.582;10.112;2023-09-07T20:06:57;9.38;;;6.00;;
69856;SDS011;57147;53.582;10.112;2023-09-07T20:12:00;7.25;;;5.57;;
69856;SDS011;57147;53.582;10.112;2023-09-07T20:22:39;9.82;;;7.80;;
69856;SDS011;57147;53.582;10.112;2023-09-07T20:27:40;15.85;;;13.77;;
69856;SDS011;57147;53.582;10.112;2023-09-07T20:32:40;20.65;;;15.52;;
69856;SDS011;57147;53.582;10.112;2023-09-07T20:37:47;19.08;;;14.95;;
69856;SDS011;57147;53.582;10.112;2023-09-07T20:42:50;18.17;;;13.88;;
69856;SDS011;57147;53.582;10.112;2023-09-07T20:47:51;14.60;;;10.05;;
69856;SDS011;57147;53.582;10.112;2023-09-07T20:52:54;12.18;;;9.75;;
69856;SDS011;57147;53.582;10.112;2023-09-07T20:57:55;14.18;;;11.65;;
69856;SDS011;57147;53.582;10.112;2023-09-07T21:02:56;12.77;;;8.98;;
69856;SDS011;57147;53.582;10.112;2023-09-07T21:07:59;9.15;;;8.05;;
69856;SDS011;57147;53.582;10.112;2023-09-07T21:12:59;9.85;;;7.82;;
69856;SDS011;57147;53.582;10.112;2023-09-07T21:18:00;9.45;;;6.10;;
69856;SDS011;57147;53.582;10.112;2023-09-07T21:23:08;15.85;;;13.73;;
69856;SDS011;57147;53.582;10.112;2023-09-07T21:28:09;11.65;;;8.38;;
69856;SDS011;57147;53.582;10.112;2023-09-07T21:33:10;9.63;;;7.22;;
69856;SDS011;57147;53.582;10.112;2023-09-07T21:38:13;7.97;;;7.03;;
69856;SDS011;57147;53.582;10.112;2023-09-07T21:43:14;14.40;;;10.90;;
69856;SDS011;57147;53.582;10.112;2023-09-07T21:48:18;8.50;;;6.97;;
69856;SDS011;57147;53.582;10.112;2023-09-07T21:53:21;8.75;;;6.88;;
69856;SDS011;57147;53.582;10.112;2023-09-07T21:58:22;10.10;;;8.35;;
69856;SDS011;57147;53.582;10.112;2023-09-07T22:03:23;12.20;;;9.48;;
69856;SDS011;57147;53.582;10.112;2023-09-07T22:08:26;10.52;;;8.65;;
69856;SDS011;57147;53.582;10.112;2023-09-07T22:13:27;8.00;;;7.22;;
69856;SDS011;57147;53.582;10.112;2023-09-07T22:18:27;9.15;;;7.88;;
69856;SDS011;57147;53.582;10.112;2023-09-07T22:23:31;8.27;;;7.13;;
69856;SDS011;57147;53.582;10.112;2023-09-07T22:28:31;11.18;;;7.22;;
69856;SDS011;57147;53.582;10.112;2023-09-07T22:33:33;9.95;;;8.68;;
69856;SDS011;57147;53.582;10.112;2023-09-07T22:38:36;14.30;;;11.88;;
69856;SDS011;57147;53.582;10.112;2023-09-07T22:43:37;15.90;;;13.85;;
69856;SDS011;57147;53.582;10.112;2023-09-07T22:48:37;8.57;;;7.53;;
69856;SDS011;57147;53.582;10.112;2023-09-07T22:53:41;10.32;;;5.50;;
69856;SDS011;57147;53.582;10.112;2023-09-07T22:58:41;6.88;;;6.18;;
69856;SDS011;57147;53.582;10.112;2023-09-07T23:03:42;5.65;;;3.78;;
69856;SDS011;57147;53.582;10.112;2023-09-07T23:08:45;12.60;;;10.82;;
69856;SDS011;57147;53.582;10.112;2023-09-07T23:13:46;13.65;;;11.88;;
69856;SDS011;57147;53.582;10.112;2023-09-07T23:18:48;8.88;;;7.45;;
69856;SDS011;57147;53.582;10.112;2023-09-07T23:23:51;5.18;;;4.25;;
69856;SDS011;57147;53.582;10.112;2023-09-07T23:28:51;8.13;;;6.78;;
69856;SDS011;57147;53.582;10.112;2023-09-07T23:33:52;7.50;;;6.50;;
69856;SDS011;57147;53.582;10.112;2023-09-07T23:38:55;8.57;;;5.15;;
69856;SDS011;57147;53.582;10.112;2023-09-07T23:43:56;30.20;;;24.40;;
69856;SDS011;57147;53.582;10.112;2023-09-07T23:48:57;21.98;;;16.60;;
69856;SDS011;57147;53.582;10.112;2023-09-07T23:54:00;7.82;;;5.55;;
69856;SDS011;57147;53.582;10.112;2023-09-07T23:59:00;7.28;;;6.50;;
